Kaprifol — 5BXX2 — position and weather

sailwx.info

Track history (hours):
 
Tides and Currents Weather Stations Pressure Air Temp Water Temp Dewpoint Dewpoint Depression Visibility Wind Speed Wind Dir Waves Ship Positions

Kaprifol

Last reported at 2017-Jan-19 14:31 UTC. Time now 2017-Jan-19 15:09 UTC.
Position N 51°15' E 004°24'.

Length 90 m; draft 4.8 m.

Type: Tanker. MMSI: 210445000.

Date/timePositionNaut miles runAvg speedWind from/ knotsBaromVisibWave heightAir tempDewpointWater temp
2017-Jan-19 14:31N 51°15' E 004°24'0 0.0
2017-Jan-19 13:33N 51°15' E 004°24'0 0.0
2017-Jan-19 12:33N 51°15' E 004°24'0 0.0
2017-Jan-19 11:33N 51°15' E 004°24'0 0.0
2017-Jan-19 10:33N 51°15' E 004°24'0 0.0
2017-Jan-19 09:33N 51°15' E 004°24'0 0.0
2017-Jan-19 08:33N 51°15' E 004°24'0 0.0
2017-Jan-19 07:33N 51°15' E 004°24'0 0.0
2017-Jan-19 06:33N 51°15' E 004°24'0 0.0
2017-Jan-19 05:33N 51°15' E 004°24'0 0.0
2017-Jan-19 04:33N 51°15' E 004°24'0 0.0
2017-Jan-19 03:33N 51°15' E 004°24'0 0.0
2017-Jan-19 02:33N 51°15' E 004°24'0 0.0
2017-Jan-19 01:33N 51°15' E 004°24'0 0.0
2017-Jan-19 00:33N 51°15' E 004°24'0 0.0
2017-Jan-18 23:33N 51°15' E 004°24'0 0.0
2017-Jan-18 22:33N 51°15' E 004°24'0 0.0
2017-Jan-18 21:33N 51°15' E 004°24'0 0.0
2017-Jan-18 20:33N 51°15' E 004°24'0 0.0
2017-Jan-18 19:33N 51°15' E 004°24'0 0.0
2017-Jan-18 18:33N 51°15' E 004°24'0 0.0
2017-Jan-18 17:33N 51°15' E 004°24'0 0.0
2017-Jan-18 16:33N 51°15' E 004°24'0 0.0
2017-Jan-18 15:33N 51°15' E 004°24'0 0.0
2017-Jan-18 14:33N 51°15' E 004°24'0 0.0
2017-Jan-18 13:33N 51°15' E 004°24'0 0.0
2017-Jan-18 12:33N 51°15' E 004°24'0 0.0
2017-Jan-18 11:33N 51°15' E 004°24'0 0.0
2017-Jan-18 10:33N 51°15' E 004°24'0 0.0
2017-Jan-18 09:33N 51°15' E 004°24'0 0.0
2017-Jan-18 08:33N 51°16' E 004°24'0 0.0
2017-Jan-18 07:33N 51°15' E 004°24'0 0.0
2017-Jan-18 06:33N 51°15' E 004°24'0 0.0
2017-Jan-18 05:33N 51°15' E 004°24'0 0.0
2017-Jan-18 04:33N 51°15' E 004°24'0 0.0
2017-Jan-18 03:33N 51°15' E 004°24'3 3.0
2017-Jan-18 02:33N 51°17' E 004°20'1 1.1
2017-Jan-18 01:33N 51°17' E 004°19'8 7.8
2017-Jan-18 00:33N 51°23' E 004°10'7 7.4
2017-Jan-17 23:33N 51°26' E 003°59'8 8.1
2017-Jan-17 22:33N 51°21' E 003°48'9 8.6
2017-Jan-17 21:33N 51°25' E 003°37'9 8.8
2017-Jan-17 20:33N 51°31' E 003°26'10 9.6
2017-Jan-17 19:33N 51°40' E 003°19'8 7.9
2017-Jan-17 18:32N 51°45' E 003°10'19 9.2
2017-Jan-17 16:26N 51°51' E 002°40'5 5.6
2017-Jan-17 15:32N 51°56' E 002°41'47 4.6
2017-Jan-17 05:24N 52°31' E 003°33'9 9.9
2017-Jan-17 04:32N 52°31' E 003°47'1010.7
2017-Jan-17 03:33N 52°31' E 004°04'1111.1
2017-Jan-17 02:33N 52°30' E 004°22'9 8.7
2017-Jan-17 01:33N 52°28' E 004°36'1 1.5
2017-Jan-17 00:33N 52°28' E 004°38'8 7.7
2017-Jan-16 23:32N 52°25' E 004°50'0 0.0
2017-Jan-16 22:32N 52°25' E 004°50'0 0.0
2017-Jan-16 21:32N 52°25' E 004°50'0 0.0
2017-Jan-16 20:29N 52°25' E 004°50'0 0.0
2017-Jan-16 19:29N 52°25' E 004°50'0 0.0
2017-Jan-16 18:32N 52°25' E 004°50'0 0.0
2017-Jan-16 17:32N 52°25' E 004°50'0 0.0
2017-Jan-16 16:32N 52°25' E 004°50'0 0.0
2017-Jan-16 15:32N 52°25' E 004°50'0 0.0
2017-Jan-16 14:32N 52°25' E 004°50'0 0.0
2017-Jan-16 13:32N 52°25' E 004°50'0 0.0
2017-Jan-16 12:32N 52°25' E 004°50'0 0.0
2017-Jan-16 11:32N 52°25' E 004°50'0 0.0
2017-Jan-16 10:32N 52°25' E 004°50'0 0.0
2017-Jan-16 09:31N 52°25' E 004°50'0 0.0
2017-Jan-16 08:31N 52°25' E 004°50'0 0.0
2017-Jan-16 07:31N 52°25' E 004°50'0 0.0
2017-Jan-16 06:31N 52°25' E 004°50'0 0.0
2017-Jan-16 05:31N 52°25' E 004°50'0 0.0
2017-Jan-16 04:31N 52°25' E 004°50'0 0.0
2017-Jan-16 03:31N 52°25' E 004°50'0 0.0
2017-Jan-16 02:31N 52°25' E 004°50'0 0.0
2017-Jan-16 01:31N 52°25' E 004°50'0 0.0
2017-Jan-16 00:33N 52°25' E 004°50'4 3.8
2017-Jan-15 23:34N 52°26' E 004°44'6 5.6
2017-Jan-15 22:33N 52°28' E 004°36'7 7.2
2017-Jan-15 21:34N 52°28' E 004°24'7 7.3
2017-Jan-15 20:33N 52°28' E 004°12'2 2.1
2017-Jan-15 19:33N 52°28' E 004°08'0 0.0
2017-Jan-15 18:33N 52°28' E 004°08'0 0.0
2017-Jan-15 17:34N 52°28' E 004°08'0 0.0
2017-Jan-15 16:33N 52°28' E 004°08'4 3.9
2017-Jan-15 15:33N 52°32' E 004°08'420 9.7
2017-Jan-13 20:04N 58°37' E 010°14'510.2
2017-Jan-13 19:34N 58°41' E 010°19'10 9.9
2017-Jan-13 18:33N 58°50' E 010°30'10 9.7
2017-Jan-13 17:34N 58°58' E 010°41'8 8.1
2017-Jan-13 16:33N 59°01' E 010°55'8 8.2
2017-Jan-13 15:34N 59°09' E 010°58'7 7.5
2017-Jan-13 14:33N 59°16' E 011°04'1 0.1
2017-Jan-13 03:21N 59°16' E 011°06'0 0.0
2017-Jan-13 02:21N 59°16' E 011°06'0 0.0
2017-Jan-12 21:30N 59°16' E 011°06'0 0.0
2017-Jan-12 20:24N 59°16' E 011°06'0 0.0
2017-Jan-12 19:21N 59°16' E 011°06'0 0.4
2017-Jan-12 18:33N 59°16' E 011°05'6 6.1
2017-Jan-12 17:33N 59°12' E 010°57'9 8.8
2017-Jan-12 16:33N 59°03' E 010°58'7 7.2
2017-Jan-12 15:33N 59°01' E 010°45'1010.5
2017-Jan-12 14:33N 58°55' E 010°29'1110.8
2017-Jan-12 13:33N 58°47' E 010°14'12410.3
2017-Jan-12 01:30N 57°42' E 006°54'1111.3
2017-Jan-12 00:33N 57°43' E 006°34'1111.2
2017-Jan-11 23:33N 57°51' E 006°18'1111.1
2017-Jan-11 22:33N 57°58' E 006°03'4310.5
2017-Jan-11 18:28N 58°27' E 005°02'9 9.8
2017-Jan-11 17:33N 58°35' E 004°55'  
Track history (hours):
 
Tides and Currents Weather Stations Pressure Air Temp Water Temp Dewpoint Dewpoint Depression Visibility Wind Speed Wind Dir Waves Ship Positions

Kaprifol

Last reported at 2017-Jan-19 14:31 UTC. Time now 2017-Jan-19 15:09 UTC.
Position N 51°15' E 004°24'.

Length 90 m; draft 4.8 m.

Type: Tanker. MMSI: 210445000.

Date/timePositionNaut miles runAvg speedWind from/ knotsBaromVisibWave heightAir tempDewpointWater temp
2017-Jan-19 14:31N 51°15' E 004°24'0 0.0
2017-Jan-19 13:33N 51°15' E 004°24'0 0.0
2017-Jan-19 12:33N 51°15' E 004°24'0 0.0
2017-Jan-19 11:33N 51°15' E 004°24'0 0.0
2017-Jan-19 10:33N 51°15' E 004°24'0 0.0
2017-Jan-19 09:33N 51°15' E 004°24'0 0.0
2017-Jan-19 08:33N 51°15' E 004°24'0 0.0
2017-Jan-19 07:33N 51°15' E 004°24'0 0.0
2017-Jan-19 06:33N 51°15' E 004°24'0 0.0
2017-Jan-19 05:33N 51°15' E 004°24'0 0.0
2017-Jan-19 04:33N 51°15' E 004°24'0 0.0
2017-Jan-19 03:33N 51°15' E 004°24'0 0.0
2017-Jan-19 02:33N 51°15' E 004°24'0 0.0
2017-Jan-19 01:33N 51°15' E 004°24'0 0.0
2017-Jan-19 00:33N 51°15' E 004°24'0 0.0
2017-Jan-18 23:33N 51°15' E 004°24'0 0.0
2017-Jan-18 22:33N 51°15' E 004°24'0 0.0
2017-Jan-18 21:33N 51°15' E 004°24'0 0.0
2017-Jan-18 20:33N 51°15' E 004°24'0 0.0
2017-Jan-18 19:33N 51°15' E 004°24'0 0.0
2017-Jan-18 18:33N 51°15' E 004°24'0 0.0
2017-Jan-18 17:33N 51°15' E 004°24'0 0.0
2017-Jan-18 16:33N 51°15' E 004°24'0 0.0
2017-Jan-18 15:33N 51°15' E 004°24'0 0.0
2017-Jan-18 14:33N 51°15' E 004°24'0 0.0
2017-Jan-18 13:33N 51°15' E 004°24'0 0.0
2017-Jan-18 12:33N 51°15' E 004°24'0 0.0
2017-Jan-18 11:33N 51°15' E 004°24'0 0.0
2017-Jan-18 10:33N 51°15' E 004°24'0 0.0
2017-Jan-18 09:33N 51°15' E 004°24'0 0.0
2017-Jan-18 08:33N 51°16' E 004°24'0 0.0
2017-Jan-18 07:33N 51°15' E 004°24'0 0.0
2017-Jan-18 06:33N 51°15' E 004°24'0 0.0
2017-Jan-18 05:33N 51°15' E 004°24'0 0.0
2017-Jan-18 04:33N 51°15' E 004°24'0 0.0
2017-Jan-18 03:33N 51°15' E 004°24'3 3.0
2017-Jan-18 02:33N 51°17' E 004°20'1 1.1
2017-Jan-18 01:33N 51°17' E 004°19'8 7.8
2017-Jan-18 00:33N 51°23' E 004°10'7 7.4
2017-Jan-17 23:33N 51°26' E 003°59'8 8.1
2017-Jan-17 22:33N 51°21' E 003°48'9 8.6
2017-Jan-17 21:33N 51°25' E 003°37'9 8.8
2017-Jan-17 20:33N 51°31' E 003°26'10 9.6
2017-Jan-17 19:33N 51°40' E 003°19'8 7.9
2017-Jan-17 18:32N 51°45' E 003°10'19 9.2
2017-Jan-17 16:26N 51°51' E 002°40'5 5.6
2017-Jan-17 15:32N 51°56' E 002°41'47 4.6
2017-Jan-17 05:24N 52°31' E 003°33'9 9.9
2017-Jan-17 04:32N 52°31' E 003°47'1010.7
2017-Jan-17 03:33N 52°31' E 004°04'1111.1
2017-Jan-17 02:33N 52°30' E 004°22'9 8.7
2017-Jan-17 01:33N 52°28' E 004°36'1 1.5
2017-Jan-17 00:33N 52°28' E 004°38'8 7.7
2017-Jan-16 23:32N 52°25' E 004°50'0 0.0
2017-Jan-16 22:32N 52°25' E 004°50'0 0.0
2017-Jan-16 21:32N 52°25' E 004°50'0 0.0
2017-Jan-16 20:29N 52°25' E 004°50'0 0.0
2017-Jan-16 19:29N 52°25' E 004°50'0 0.0
2017-Jan-16 18:32N 52°25' E 004°50'0 0.0
2017-Jan-16 17:32N 52°25' E 004°50'0 0.0
2017-Jan-16 16:32N 52°25' E 004°50'0 0.0
2017-Jan-16 15:32N 52°25' E 004°50'0 0.0
2017-Jan-16 14:32N 52°25' E 004°50'0 0.0
2017-Jan-16 13:32N 52°25' E 004°50'0 0.0
2017-Jan-16 12:32N 52°25' E 004°50'0 0.0
2017-Jan-16 11:32N 52°25' E 004°50'0 0.0
2017-Jan-16 10:32N 52°25' E 004°50'0 0.0
2017-Jan-16 09:31N 52°25' E 004°50'0 0.0
2017-Jan-16 08:31N 52°25' E 004°50'0 0.0
2017-Jan-16 07:31N 52°25' E 004°50'0 0.0
2017-Jan-16 06:31N 52°25' E 004°50'0 0.0
2017-Jan-16 05:31N 52°25' E 004°50'0 0.0
2017-Jan-16 04:31N 52°25' E 004°50'0 0.0
2017-Jan-16 03:31N 52°25' E 004°50'0 0.0
2017-Jan-16 02:31N 52°25' E 004°50'0 0.0
2017-Jan-16 01:31N 52°25' E 004°50'0 0.0
2017-Jan-16 00:33N 52°25' E 004°50'4 3.8
2017-Jan-15 23:34N 52°26' E 004°44'6 5.6
2017-Jan-15 22:33N 52°28' E 004°36'7 7.2
2017-Jan-15 21:34N 52°28' E 004°24'7 7.3
2017-Jan-15 20:33N 52°28' E 004°12'2 2.1
2017-Jan-15 19:33N 52°28' E 004°08'0 0.0
2017-Jan-15 18:33N 52°28' E 004°08'0 0.0
2017-Jan-15 17:34N 52°28' E 004°08'0 0.0
2017-Jan-15 16:33N 52°28' E 004°08'4 3.9
2017-Jan-15 15:33N 52°32' E 004°08'420 9.7
2017-Jan-13 20:04N 58°37' E 010°14'510.2
2017-Jan-13 19:34N 58°41' E 010°19'10 9.9
2017-Jan-13 18:33N 58°50' E 010°30'10 9.7
2017-Jan-13 17:34N 58°58' E 010°41'8 8.1
2017-Jan-13 16:33N 59°01' E 010°55'8 8.2
2017-Jan-13 15:34N 59°09' E 010°58'7 7.5
2017-Jan-13 14:33N 59°16' E 011°04'1 0.1
2017-Jan-13 03:21N 59°16' E 011°06'0 0.0
2017-Jan-13 02:21N 59°16' E 011°06'0 0.0
2017-Jan-12 21:30N 59°16' E 011°06'0 0.0
2017-Jan-12 20:24N 59°16' E 011°06'0 0.0
2017-Jan-12 19:21N 59°16' E 011°06'0 0.4
2017-Jan-12 18:33N 59°16' E 011°05'6 6.1
2017-Jan-12 17:33N 59°12' E 010°57'9 8.8
2017-Jan-12 16:33N 59°03' E 010°58'7 7.2
2017-Jan-12 15:33N 59°01' E 010°45'1010.5
2017-Jan-12 14:33N 58°55' E 010°29'1110.8
2017-Jan-12 13:33N 58°47' E 010°14'12410.3
2017-Jan-12 01:30N 57°42' E 006°54'1111.3
2017-Jan-12 00:33N 57°43' E 006°34'1111.2
2017-Jan-11 23:33N 57°51' E 006°18'1111.1
2017-Jan-11 22:33N 57°58' E 006°03'4310.5
2017-Jan-11 18:28N 58°27' E 005°02'9 9.8
2017-Jan-11 17:33N 58°35' E 004°55'  

Dump ship's entire track history